Airfield :
LOGIN :

Register | Disclaimer

   EN    FR    IT 

 










Legend :    VFR   Marginal VFR   IFR   Intensive IFR   Very Intensive IFR
Visi :
Ceiling :
>= 8 km
>= 3000ft
5 to 8 km
1000 to 3000 ft
1500m to 5 km
500 to 1000 ft
800 to 1500m
200 to 500 ft
< 800m
< 200 ft
Symbols :   Thunderstorms  Fog  Heavy snow  Heavy precipitations  Wind > 20 kt
SIGMETs :     Misc.  Thunderstorms  Icing  Turbulence  Mountain Waves  Volcanic Ashes






- Airport Elevation : 194 ft
- IATA code : ANE


LFJR - Angers Marcé

CURRENT METAR :
  • 162100Z AUTO 23006KT CAVOK 16/14 Q1010

EXPIRED METARs :
  • 162030Z AUTO 22005KT CAVOK 17/14 Q1009
  • 162000Z AUTO 23008KT 9999 FEW017 SCT036 BKN100 17/14 Q1009
  • 161930Z AUTO 25007KT 9999 BKN020 18/15 Q1009
  • 161900Z AUTO 25007KT 220V280 9999 BKN019 BKN024 OVC045 19/16 Q1008
  • 161830Z AUTO 25007KT 9999 BKN017/// OVC023/// ///TCU 18/15 Q1008
  • 161800Z AUTO 24010KT 9999 SCT018/// SCT041/// OVC120/// ///CB 19/15 Q1008
  • 161730Z AUTO 25008KT 220V280 9999 BKN016/// BKN021/// BKN027/// ///CB 18/16 Q1008
  • 161700Z AUTO 23008KT 200V260 9999 SCT024/// BKN040/// BKN062/// ///CB 19/15 Q1008
  • 161630Z AUTO 21010KT 9999 SCT020 BKN026 BKN035 19/15 Q1008

Expired Forecast.



MET'MAP, your aeronautical weather chart ! - Copyright ORBIFLY December 2007 - Disclaimer

ORBIFLY MET'MAP TEAM :

Programming & Development : Alexandra Zaïnal
Original concept : Baudouin d'Aumeries
Technical & hardware support : Manuel Goepfert
Assistance : Marc-Olivier Méhu




SOURCES & CREDITS :

   NOAA